Terminal Aerodrome Forecast
Issued by NWS Grand Rapids, MI

Home | Current Version | Previous Version | Text Only | Print | Product List | Glossary On
Versions: 1 2 3 4 5 6 7 8 9 10 11 12 13 14 15 16 17 18
000
FTUS43 KGRR 202340
TAFGRR
TAF
KGRR 202340Z 2100/2124 23005KT P6SM BKN250
     FM210600 19004KT 5SM BR BKN015
     FM210900 18003KT 2SM BR OVC005
     FM211800 15006KT 1 1/2SM -DZ BR OVC003=

USA.gov is the U.S. government's official web portal to all federal, state and local government web resources and services.